Hammond, Oregon
Current Conditions -  °F | °C
As of 4:55 AM on Thursday 27 Nov 2014 (Local Time) from KAST Reporting Station
Light Rain Light Rain  
Wind Chill: 57°   Ceiling: 600
Heat Index: 57°   Visibility: 6mi
Dew Point: 55°   Wind: 16mph
Humidity: 93%   Direction: 210°SSW
Pressure: 29.89"   Gusts: 25mph
Location:  46.2°N, 123.95°W
Report Text: KAST 271255Z AUTO 21014G22KT 6SM -RA BR BKN006 OVC010 14/13 A2989 RMK AO2 SLP122 P0006 T01390128
Loading
Personal Weather Stations






























Interactive Weather Map New forecast layout! Learn more

10-Day Weather Forecast

Advertisements
Track Severe Weather on mobile